createdAt,value
2023-01-17T00:01:12.272Z,0.25
2023-01-17T00:03:54.042Z,0.28
2023-01-17T00:06:41.034Z,0.32
2023-01-17T00:09:27.221Z,2.20
2023-01-17T00:11:55.184Z,0.40
2023-01-17T00:14:23.101Z,1.90
2023-01-17T00:16:51.021Z,1.45
2023-01-17T00:19:36.609Z,0.50
2023-01-17T00:22:29.089Z,1.05
2023-01-17T00:25:14.816Z,0.98
2023-01-17T00:27:41.399Z,0.30
2023-01-17T00:30:10.969Z,0.68
2023-01-17T00:32:37.755Z,0.95
2023-01-17T00:35:05.085Z,0.32
2023-01-17T00:37:33.278Z,0.43
2023-01-17T00:40:00.117Z,0.30
2023-01-17T00:42:26.919Z,0.50
2023-01-17T00:45:12.339Z,1.10
2023-01-17T00:47:57.770Z,1.63
2023-01-17T00:50:43.247Z,1.48
2023-01-17T00:53:29.957Z,1.10
2023-01-17T00:56:18.773Z,0.32
2023-01-17T00:59:04.209Z,1.25
2023-01-17T01:01:49.714Z,1.00
2023-01-17T01:04:35.168Z,0.40
2023-01-17T01:07:20.508Z,0.40
2023-01-17T01:10:07.329Z,1.35
2023-01-17T01:12:52.699Z,0.30
2023-01-17T01:15:38.592Z,0.40
2023-01-17T01:18:24.630Z,0.52
2023-01-17T01:21:09.622Z,0.70
2023-01-17T01:23:55.127Z,0.47
2023-01-17T01:26:41.982Z,0.65
2023-01-17T01:29:27.316Z,0.30
2023-01-17T01:32:12.736Z,0.45
2023-01-17T01:34:40.550Z,2.83
2023-01-17T01:37:08.237Z,0.98
2023-01-17T01:39:35.997Z,0.50
2023-01-17T01:42:05.524Z,0.73
2023-01-17T01:44:46.965Z,0.30
2023-01-17T01:47:16.608Z,1.95
2023-01-17T01:49:44.990Z,0.40
2023-01-17T01:52:13.163Z,0.28
2023-01-17T01:54:43.659Z,0.65
2023-01-17T01:57:15.243Z,0.43
2023-01-17T01:59:44.854Z,0.88
2023-01-17T02:02:12.998Z,0.68
2023-01-17T02:04:41.400Z,0.47
2023-01-17T02:07:11.677Z,0.55
2023-01-17T02:09:39.694Z,0.55
2023-01-17T02:12:08.568Z,0.65
2023-01-17T02:14:37.862Z,0.45
2023-01-17T02:17:13.476Z,3.22
2023-01-17T02:19:59.056Z,0.55
2023-01-17T02:22:48.021Z,0.65
2023-01-17T02:25:25.766Z,0.80
2023-01-17T02:27:57.716Z,1.98
2023-01-17T02:30:33.383Z,0.32
2023-01-17T02:33:04.663Z,0.55
2023-01-17T02:35:35.761Z,1.20
2023-01-17T02:38:12.492Z,1.17
2023-01-17T02:40:42.496Z,0.40
2023-01-17T02:43:12.770Z,0.93
2023-01-17T02:45:42.010Z,0.63
2023-01-17T02:48:11.782Z,0.65
2023-01-17T02:50:46.301Z,1.45
2023-01-17T02:53:22.100Z,0.40
2023-01-17T02:55:55.345Z,0.40
2023-01-17T02:58:33.827Z,0.70
2023-01-17T03:01:06.965Z,1.23
2023-01-17T03:03:35.941Z,1.65
2023-01-17T03:06:07.827Z,0.50
2023-01-17T03:08:35.802Z,0.60
2023-01-17T03:11:03.737Z,0.90
2023-01-17T03:13:32.105Z,0.65
2023-01-17T03:16:00.141Z,0.30
2023-01-17T03:18:29.415Z,2.20
2023-01-17T03:20:57.260Z,0.52
2023-01-17T03:23:25.238Z,0.52
2023-01-17T03:25:53.156Z,0.30
2023-01-17T03:28:21.036Z,0.40
2023-01-17T03:30:49.131Z,0.55
2023-01-17T03:33:17.638Z,2.63
2023-01-17T03:35:47.701Z,1.20
2023-01-17T03:38:15.580Z,0.45
2023-01-17T03:40:43.640Z,2.35
2023-01-17T03:43:11.866Z,0.85
2023-01-17T03:45:39.948Z,1.42
2023-01-17T03:48:07.956Z,0.98
2023-01-17T03:50:35.998Z,1.00
2023-01-17T03:53:05.159Z,1.77
2023-01-17T03:55:33.033Z,0.40
2023-01-17T03:58:00.962Z,0.77
2023-01-17T04:00:28.813Z,0.65
2023-01-17T04:02:56.693Z,0.60
2023-01-17T04:05:24.585Z,1.00
2023-01-17T04:07:52.545Z,0.50
2023-01-17T04:10:21.849Z,0.50
2023-01-17T04:12:49.826Z,3.55
2023-01-17T04:15:17.781Z,0.40
2023-01-17T04:17:45.715Z,1.75
2023-01-17T04:20:16.492Z,0.40
2023-01-17T04:22:44.460Z,2.47
2023-01-17T04:25:12.414Z,0.75
2023-01-17T04:27:41.611Z,0.40
2023-01-17T04:30:10.365Z,3.60
2023-01-17T04:32:38.176Z,0.85
2023-01-17T04:35:07.236Z,0.60
2023-01-17T04:37:35.248Z,0.77
2023-01-17T04:40:03.514Z,0.50
2023-01-17T04:42:31.334Z,0.38
2023-01-17T04:45:00.572Z,0.70
2023-01-17T04:47:28.633Z,0.50
2023-01-17T04:49:56.466Z,0.75
2023-01-17T04:52:25.339Z,1.02
2023-01-17T04:54:53.307Z,0.70
2023-01-17T04:57:21.433Z,0.60
2023-01-17T04:59:49.193Z,1.35
2023-01-17T05:02:18.440Z,0.60
2023-01-17T05:04:46.311Z,0.43
2023-01-17T05:07:14.180Z,0.70
2023-01-17T05:09:43.700Z,0.57
2023-01-17T05:12:11.672Z,0.68
2023-01-17T05:14:39.462Z,1.08
2023-01-17T05:17:07.774Z,0.90
2023-01-17T05:19:37.256Z,1.27
2023-01-17T05:22:15.407Z,1.10
2023-01-17T05:24:43.552Z,0.40
2023-01-17T05:27:11.737Z,0.68
2023-01-17T05:29:39.545Z,0.65
2023-01-17T05:32:07.834Z,0.65
2023-01-17T05:34:37.112Z,3.08
2023-01-17T05:37:05.096Z,1.17
2023-01-17T05:39:32.820Z,0.65
2023-01-17T05:42:00.776Z,0.90
2023-01-17T05:44:28.471Z,1.58
2023-01-17T05:46:56.480Z,0.88
2023-01-17T05:49:24.212Z,2.83
2023-01-17T05:51:54.908Z,1.00
2023-01-17T05:54:22.965Z,0.77
2023-01-17T05:56:50.559Z,0.93
2023-01-17T05:59:25.624Z,0.77
2023-01-17T06:02:03.884Z,0.73
2023-01-17T06:04:31.935Z,1.20
2023-01-17T06:07:01.128Z,1.95
2023-01-17T06:09:28.950Z,1.17
2023-01-17T06:11:56.758Z,0.60
2023-01-17T06:14:24.544Z,0.55
2023-01-17T06:16:52.286Z,2.00
2023-01-17T06:19:19.946Z,1.75
2023-01-17T06:21:47.617Z,2.10
2023-01-17T06:24:16.790Z,0.60
2023-01-17T06:26:44.521Z,0.85
2023-01-17T06:29:12.369Z,2.80
2023-01-17T06:31:40.074Z,0.73
2023-01-17T06:34:07.828Z,0.50
2023-01-17T06:36:35.572Z,0.95
2023-01-17T06:39:03.381Z,1.05
2023-01-17T06:41:32.680Z,1.48
2023-01-17T06:44:00.505Z,3.78
2023-01-17T06:46:28.215Z,3.03
2023-01-17T06:48:55.976Z,4.35
2023-01-17T06:51:23.674Z,2.75
2023-01-17T06:53:51.550Z,1.98
2023-01-17T06:56:19.393Z,6.75
2023-01-17T06:58:51.392Z,4.55
2023-01-17T07:01:19.451Z,5.15
2023-01-17T07:03:47.218Z,4.25
2023-01-17T07:06:14.922Z,3.13
2023-01-17T07:08:42.621Z,5.78
2023-01-17T07:11:10.561Z,5.40
2023-01-17T07:13:39.180Z,4.28
2023-01-17T07:16:09.077Z,5.43
2023-01-17T07:18:36.754Z,6.00
2023-01-17T07:21:04.414Z,3.00
2023-01-17T07:23:32.125Z,4.18
2023-01-17T07:26:00.919Z,4.15
2023-01-17T07:28:29.196Z,4.15
2023-01-17T07:30:57.350Z,9.45
2023-01-17T07:33:26.403Z,4.35
2023-01-17T07:35:54.069Z,2.92
2023-01-17T07:38:21.609Z,4.82
2023-01-17T07:40:49.156Z,7.18
2023-01-17T07:43:17.297Z,2.65
2023-01-17T07:45:45.618Z,2.03
2023-01-17T07:48:13.706Z,1.83
2023-01-17T07:50:42.738Z,2.92
2023-01-17T07:53:10.704Z,4.57
2023-01-17T07:55:38.318Z,5.15
2023-01-17T07:58:05.928Z,3.42
2023-01-17T08:00:33.511Z,1.75
2023-01-17T08:03:01.501Z,3.63
2023-01-17T08:05:30.715Z,8.05
2023-01-17T08:07:59.835Z,5.65
2023-01-17T08:10:27.441Z,5.95
2023-01-17T08:12:55.362Z,5.15
2023-01-17T08:15:23.508Z,7.60
2023-01-17T08:17:53.241Z,5.63
2023-01-17T08:20:21.168Z,5.72
2023-01-17T08:22:48.745Z,4.78
2023-01-17T08:25:17.768Z,4.63
2023-01-17T08:27:45.733Z,8.70
2023-01-17T08:30:13.759Z,5.38
2023-01-17T08:32:41.822Z,6.07
2023-01-17T08:35:10.615Z,7.63
2023-01-17T08:37:39.166Z,4.18
2023-01-17T08:40:08.908Z,4.95
2023-01-17T08:42:40.356Z,5.53
2023-01-17T08:45:09.391Z,3.90
2023-01-17T08:47:37.405Z,3.33
2023-01-17T08:50:06.833Z,5.05
2023-01-17T08:52:35.023Z,3.45
2023-01-17T08:55:02.897Z,2.90
2023-01-17T08:57:32.045Z,5.53
2023-01-17T09:00:01.349Z,3.00
2023-01-17T09:02:29.180Z,5.03
2023-01-17T09:04:57.166Z,7.10
2023-01-17T09:07:26.985Z,4.25
2023-01-17T09:09:54.854Z,5.72
2023-01-17T09:12:22.942Z,4.07
2023-01-17T09:14:50.893Z,4.32
2023-01-17T09:17:20.248Z,3.45
2023-01-17T09:19:48.848Z,4.80
2023-01-17T09:22:16.839Z,3.67
2023-01-17T09:24:44.863Z,4.00
2023-01-17T09:27:12.778Z,3.28
2023-01-17T09:29:40.691Z,3.35
2023-01-17T09:32:08.505Z,3.28
2023-01-17T09:34:37.905Z,3.88
2023-01-17T09:37:05.821Z,3.67
2023-01-17T09:39:33.788Z,6.03
2023-01-17T09:42:03.921Z,3.60
2023-01-17T09:44:40.006Z,2.75
2023-01-17T09:47:13.615Z,4.05
2023-01-17T09:49:44.380Z,5.20
2023-01-17T09:52:14.298Z,4.38
2023-01-17T09:54:42.957Z,3.15
2023-01-17T09:57:16.762Z,3.30
2023-01-17T09:59:47.065Z,4.93
2023-01-17T10:02:26.344Z,2.78
2023-01-17T10:05:04.559Z,4.10
2023-01-17T10:07:40.719Z,5.53
2023-01-17T10:10:16.161Z,2.92
2023-01-17T10:12:49.217Z,2.65
2023-01-17T10:15:32.233Z,3.90
2023-01-17T10:18:03.923Z,3.72
2023-01-17T10:20:43.509Z,4.13
2023-01-17T10:23:18.754Z,3.10
2023-01-17T10:25:48.775Z,3.22
2023-01-17T10:28:17.958Z,3.05
2023-01-17T10:30:48.899Z,3.28
2023-01-17T10:33:19.228Z,3.38
2023-01-17T10:35:54.685Z,3.33
2023-01-17T10:38:24.432Z,3.28
2023-01-17T10:40:55.401Z,3.35
2023-01-17T10:43:25.843Z,3.28
2023-01-17T10:45:54.526Z,3.33
2023-01-17T10:48:30.746Z,3.65
2023-01-17T10:51:02.593Z,4.70
2023-01-17T10:53:38.964Z,2.97
2023-01-17T10:56:06.879Z,3.97
2023-01-17T10:58:34.698Z,2.97
2023-01-17T11:01:03.503Z,2.85
2023-01-17T11:03:32.175Z,3.97
2023-01-17T11:06:17.650Z,2.47
2023-01-17T11:08:53.446Z,3.15
2023-01-17T11:11:22.173Z,2.75
2023-01-17T11:13:50.606Z,2.72
2023-01-17T11:16:21.250Z,2.25
2023-01-17T11:19:05.019Z,2.42
2023-01-17T11:21:34.365Z,3.85
2023-01-17T11:24:10.278Z,3.00
2023-01-17T11:26:39.261Z,3.80
2023-01-17T11:29:17.332Z,3.10
2023-01-17T11:31:45.036Z,3.92
2023-01-17T11:34:17.314Z,3.92
2023-01-17T11:36:46.512Z,2.65
2023-01-17T11:39:27.708Z,2.85
2023-01-17T11:41:55.628Z,3.08
2023-01-17T11:44:25.812Z,2.03
2023-01-17T11:47:19.413Z,3.28
2023-01-17T11:49:48.738Z,2.50
2023-01-17T11:52:23.450Z,2.13
2023-01-17T11:54:51.876Z,2.40
2023-01-17T11:57:22.091Z,2.25
2023-01-17T11:59:50.206Z,3.05
2023-01-17T12:02:45.069Z,2.70
2023-01-17T12:05:19.966Z,3.17
2023-01-17T12:07:52.361Z,2.83
2023-01-17T12:10:22.741Z,3.30
2023-01-17T12:13:13.664Z,3.00
2023-01-17T12:15:50.908Z,2.33
2023-01-17T12:18:24.609Z,1.83
2023-01-17T12:20:57.119Z,1.95
2023-01-17T12:23:38.734Z,2.45
2023-01-17T12:26:12.369Z,2.05
2023-01-17T12:28:50.603Z,1.90
2023-01-17T12:31:22.627Z,3.47
2023-01-17T12:33:53.375Z,2.40
2023-01-17T12:36:31.094Z,2.42
2023-01-17T12:39:02.138Z,2.58
2023-01-17T12:41:32.461Z,1.85
2023-01-17T12:44:00.682Z,1.80
2023-01-17T12:46:30.878Z,2.20
2023-01-17T12:49:03.778Z,3.25
2023-01-17T12:51:34.349Z,1.60
2023-01-17T12:54:06.440Z,2.03
2023-01-17T12:56:36.858Z,2.22
2023-01-17T12:59:08.511Z,1.75
2023-01-17T13:01:39.878Z,2.35
2023-01-17T13:04:12.602Z,1.98
2023-01-17T13:06:45.983Z,2.42
2023-01-17T13:09:17.987Z,3.67
2023-01-17T13:11:49.792Z,1.27
2023-01-17T13:14:17.416Z,2.92
2023-01-17T13:16:47.833Z,2.03
2023-01-17T13:19:20.529Z,1.27
2023-01-17T13:21:49.009Z,4.97
2023-01-17T13:24:27.692Z,2.83
2023-01-17T13:27:10.167Z,1.70
2023-01-17T13:29:41.367Z,1.30
2023-01-17T13:32:16.132Z,1.85
2023-01-17T13:35:02.082Z,1.50
2023-01-17T13:37:39.321Z,1.50
2023-01-17T13:40:22.103Z,1.85
2023-01-17T13:42:54.703Z,1.75
2023-01-17T13:45:23.615Z,1.58
2023-01-17T13:47:52.542Z,1.23
2023-01-17T13:50:38.568Z,1.52
2023-01-17T13:53:21.179Z,1.05
2023-01-17T13:55:53.319Z,3.05
2023-01-17T13:58:30.171Z,3.35
2023-01-17T14:00:57.992Z,2.08
2023-01-17T14:03:44.299Z,2.30
2023-01-17T14:06:26.876Z,1.80
2023-01-17T14:08:54.770Z,3.67
2023-01-17T14:11:24.015Z,1.92
2023-01-17T14:13:51.868Z,1.38
2023-01-17T14:16:27.516Z,1.48
2023-01-17T14:18:55.723Z,1.52
2023-01-17T14:21:24.986Z,0.93
2023-01-17T14:23:59.282Z,0.95
2023-01-17T14:26:45.005Z,1.88
2023-01-17T14:29:33.107Z,2.92
2023-01-17T14:32:03.666Z,2.40
2023-01-17T14:34:31.471Z,1.77
2023-01-17T14:37:05.013Z,2.60
2023-01-17T14:39:32.834Z,1.42
2023-01-17T14:42:00.695Z,2.50
2023-01-17T14:44:28.357Z,1.20
2023-01-17T14:46:57.159Z,0.93
2023-01-17T14:49:27.011Z,1.52
2023-01-17T14:52:01.898Z,1.30
2023-01-17T14:54:30.218Z,1.67
2023-01-17T14:57:15.704Z,1.95
2023-01-17T14:59:43.454Z,1.35
2023-01-17T15:02:15.303Z,2.50
2023-01-17T15:04:44.680Z,1.77
2023-01-17T15:07:15.543Z,2.92
2023-01-17T15:09:43.932Z,0.90
2023-01-17T15:12:13.811Z,2.30
2023-01-17T15:14:44.355Z,3.15
2023-01-17T15:17:17.820Z,1.10
2023-01-17T15:19:49.013Z,2.35
2023-01-17T15:22:17.282Z,1.27
2023-01-17T15:24:45.544Z,2.78
2023-01-17T15:27:14.564Z,1.45
2023-01-17T15:29:42.536Z,2.25
2023-01-17T15:32:16.917Z,2.75
2023-01-17T15:34:45.824Z,0.68
2023-01-17T15:37:24.413Z,1.00
2023-01-17T15:39:52.050Z,1.08
2023-01-17T15:42:22.743Z,1.13
2023-01-17T15:44:53.583Z,2.08
2023-01-17T15:47:28.380Z,1.13
2023-01-17T15:49:56.150Z,2.22
2023-01-17T15:52:25.241Z,1.30
2023-01-17T15:54:54.579Z,1.58
2023-01-17T15:57:25.902Z,1.38
2023-01-17T15:59:58.423Z,1.48
2023-01-17T16:02:34.365Z,1.02
2023-01-17T16:05:02.803Z,1.23
2023-01-17T16:07:34.883Z,1.50
2023-01-17T16:10:03.609Z,1.33
2023-01-17T16:12:31.326Z,1.98
2023-01-17T16:15:11.722Z,1.92
2023-01-17T16:17:41.238Z,1.33
2023-01-17T16:20:15.970Z,1.88
2023-01-17T16:22:45.124Z,2.35
2023-01-17T16:25:14.100Z,1.95
2023-01-17T16:27:43.222Z,3.17
2023-01-17T16:30:11.666Z,3.63
2023-01-17T16:32:39.345Z,1.85
2023-01-17T16:35:07.843Z,2.95
2023-01-17T16:37:35.503Z,2.47
2023-01-17T16:40:04.761Z,2.28
2023-01-17T16:42:32.477Z,2.47
2023-01-17T16:45:00.206Z,1.92
2023-01-17T16:47:27.946Z,2.53
2023-01-17T16:49:55.667Z,1.40
2023-01-17T16:52:23.254Z,2.50
2023-01-17T16:54:50.896Z,2.95
2023-01-17T16:57:19.954Z,2.55
2023-01-17T16:59:50.797Z,1.75
2023-01-17T17:02:18.927Z,1.40
2023-01-17T17:04:46.658Z,2.42
2023-01-17T17:07:14.529Z,3.05
2023-01-17T17:09:42.237Z,2.63
2023-01-17T17:12:10.057Z,4.07
2023-01-17T17:14:39.477Z,2.33
2023-01-17T17:17:07.667Z,2.97
2023-01-17T17:19:35.457Z,3.97
2023-01-17T17:22:03.157Z,4.28
2023-01-17T17:24:30.843Z,4.63
2023-01-17T17:26:58.714Z,2.58
2023-01-17T17:29:26.465Z,3.53
2023-01-17T17:31:55.702Z,3.20
2023-01-17T17:34:25.687Z,2.95
2023-01-17T17:36:53.352Z,3.70
2023-01-17T17:39:21.195Z,3.35
2023-01-17T17:41:48.914Z,3.42
2023-01-17T17:44:17.467Z,4.95
2023-01-17T17:46:49.149Z,2.72
2023-01-17T17:49:18.344Z,2.67
2023-01-17T17:51:46.001Z,4.68
2023-01-17T17:54:14.586Z,3.35
2023-01-17T17:56:46.470Z,4.00
2023-01-17T17:59:18.093Z,3.47
2023-01-17T18:01:46.098Z,4.00
2023-01-17T18:04:14.229Z,5.38
2023-01-17T18:06:43.739Z,6.30
2023-01-17T18:09:12.323Z,4.85
2023-01-17T18:11:40.857Z,3.47
2023-01-17T18:14:10.118Z,4.18
2023-01-17T18:16:39.240Z,3.22
2023-01-17T18:19:06.968Z,3.00
2023-01-17T18:21:35.913Z,5.45
2023-01-17T18:24:06.094Z,6.80
2023-01-17T18:26:35.021Z,6.13
2023-01-17T18:29:03.343Z,4.07
2023-01-17T18:31:31.515Z,5.70
2023-01-17T18:34:00.779Z,3.80
2023-01-17T18:36:29.557Z,5.13
2023-01-17T18:38:58.557Z,5.38
2023-01-17T18:41:28.523Z,6.93
2023-01-17T18:43:56.801Z,6.93
2023-01-17T18:46:25.832Z,4.03
2023-01-17T18:48:56.024Z,4.35
2023-01-17T18:51:24.049Z,4.78
2023-01-17T18:53:52.913Z,6.30
2023-01-17T18:56:24.700Z,6.65
2023-01-17T18:58:55.237Z,5.57
2023-01-17T19:01:23.794Z,5.75
2023-01-17T19:03:52.833Z,6.07
2023-01-17T19:06:21.752Z,5.20
2023-01-17T19:08:51.708Z,6.88
2023-01-17T19:11:20.042Z,5.10
2023-01-17T19:13:50.266Z,5.40
2023-01-17T19:16:21.108Z,7.68
2023-01-17T19:18:48.748Z,6.10
2023-01-17T19:21:17.032Z,4.90
2023-01-17T19:23:44.716Z,5.70
2023-01-17T19:26:13.430Z,4.95
2023-01-17T19:28:41.656Z,7.72
2023-01-17T19:31:10.524Z,7.30
2023-01-17T19:33:40.502Z,7.18
2023-01-17T19:36:10.472Z,9.20
2023-01-17T19:38:38.731Z,6.97
2023-01-17T19:41:10.407Z,8.82
2023-01-17T19:43:39.074Z,10.05
2023-01-17T19:46:08.064Z,6.30
2023-01-17T19:48:35.857Z,7.78
2023-01-17T19:51:09.381Z,8.98
2023-01-17T19:53:37.494Z,8.48
2023-01-17T19:56:05.876Z,7.43
2023-01-17T19:58:33.564Z,6.55
2023-01-17T20:01:10.878Z,6.00
2023-01-17T20:03:39.123Z,8.68
2023-01-17T20:06:08.501Z,3.97
2023-01-17T20:08:36.466Z,4.63
2023-01-17T20:11:05.264Z,4.53
2023-01-17T20:13:33.426Z,4.40
2023-01-17T20:16:02.902Z,3.20
2023-01-17T20:18:30.754Z,4.00
2023-01-17T20:21:03.081Z,3.83
2023-01-17T20:23:34.263Z,3.17
2023-01-17T20:26:03.524Z,4.15
2023-01-17T20:28:32.086Z,5.40
2023-01-17T20:31:05.080Z,6.03
2023-01-17T20:33:33.308Z,4.68
2023-01-17T20:36:09.985Z,5.72
2023-01-17T20:38:44.698Z,3.53
2023-01-17T20:41:13.457Z,5.53
2023-01-17T20:43:41.190Z,7.45
2023-01-17T20:46:09.300Z,4.18
2023-01-17T20:48:39.142Z,5.40
2023-01-17T20:51:07.761Z,4.18
2023-01-17T20:53:35.825Z,5.07
2023-01-17T20:56:05.548Z,4.30
2023-01-17T20:58:34.176Z,6.95
2023-01-17T21:01:02.441Z,6.70
2023-01-17T21:03:30.313Z,6.13
2023-01-17T21:06:02.627Z,5.20
2023-01-17T21:08:30.353Z,4.65
2023-01-17T21:10:58.119Z,7.40
2023-01-17T21:13:27.389Z,4.32
2023-01-17T21:15:55.092Z,4.00
2023-01-17T21:18:23.925Z,5.57
2023-01-17T21:20:53.048Z,4.65
2023-01-17T21:23:20.793Z,9.77
2023-01-17T21:26:06.379Z,6.00
2023-01-17T21:28:37.316Z,4.85
2023-01-17T21:31:16.692Z,5.68
2023-01-17T21:33:44.679Z,5.30
2023-01-17T21:36:12.541Z,5.70
2023-01-17T21:38:40.310Z,7.07
2023-01-17T21:41:08.068Z,5.35
2023-01-17T21:43:37.148Z,3.55
2023-01-17T21:46:05.672Z,5.47
2023-01-17T21:48:33.461Z,7.47
2023-01-17T21:51:05.139Z,5.10
2023-01-17T21:53:33.225Z,5.78
2023-01-17T21:56:18.704Z,4.68
2023-01-17T21:58:49.255Z,8.50
2023-01-17T22:01:18.825Z,7.47
2023-01-17T22:03:49.223Z,6.35
2023-01-17T22:06:17.163Z,5.75
2023-01-17T22:08:45.087Z,4.50
2023-01-17T22:11:14.295Z,3.03
2023-01-17T22:13:42.988Z,5.45
2023-01-17T22:16:13.566Z,3.40
2023-01-17T22:18:42.437Z,5.57
2023-01-17T22:21:12.198Z,5.57
2023-01-17T22:23:40.738Z,8.98
2023-01-17T22:26:09.179Z,6.20
2023-01-17T22:28:37.146Z,4.25
2023-01-17T22:31:10.711Z,8.15
2023-01-17T22:33:40.499Z,8.13
2023-01-17T22:36:09.227Z,5.32
2023-01-17T22:38:37.569Z,5.15
2023-01-17T22:41:08.000Z,4.25
2023-01-17T22:43:37.388Z,5.43
2023-01-17T22:46:05.311Z,5.97
2023-01-17T22:48:33.250Z,3.40
2023-01-17T22:51:02.773Z,5.28
2023-01-17T22:53:30.997Z,6.70
2023-01-17T22:55:59.631Z,6.78
2023-01-17T22:58:28.731Z,4.60
2023-01-17T23:00:58.412Z,8.45
2023-01-17T23:03:26.105Z,5.10
2023-01-17T23:05:53.939Z,5.65
2023-01-17T23:08:23.107Z,6.25
2023-01-17T23:11:08.217Z,7.35
2023-01-17T23:13:35.881Z,6.40
2023-01-17T23:16:23.229Z,6.50
2023-01-17T23:19:13.753Z,6.10
2023-01-17T23:21:58.912Z,5.13
2023-01-17T23:24:28.127Z,8.65
2023-01-17T23:27:13.200Z,4.72
2023-01-17T23:29:40.902Z,9.52
2023-01-17T23:32:08.635Z,5.63
2023-01-17T23:34:36.321Z,4.60
2023-01-17T23:37:04.025Z,5.43
2023-01-17T23:39:33.168Z,7.68
2023-01-17T23:42:18.192Z,5.85
2023-01-17T23:44:45.872Z,4.70
2023-01-17T23:47:13.633Z,6.05
2023-01-17T23:49:43.381Z,8.65
2023-01-17T23:52:11.084Z,6.03
2023-01-17T23:54:40.225Z,4.43
2023-01-17T23:57:07.945Z,4.43
2023-01-17T23:59:35.730Z,6.85
